Time;durP1;ratioP1;P1;durP2;ratioP2;P2;SDS_P1;SDS_P2;PMS_P1;PMS_P2;Temp;Humidity;BMP_temperature;BMP_pressure;BME280_temperature;BME280_humidity;BME280_pressure;Samples;Min_cycle;Max_cycle;Signal;HPM_P1;HPM_P2
2023/12/04 00:01:22;;;;;;;60.40;26.08;;;-2.10;99.90;;;;;;4941165;28;20593;-74
2023/12/04 00:03:49;;;;;;;60.70;23.85;;;-2.20;99.90;;;;;;4975074;28;20654;-75
2023/12/04 00:06:16;;;;;;;77.15;30.55;;;-2.20;99.90;;;;;;4964738;28;20058;-74
2023/12/04 00:08:43;;;;;;;68.78;28.23;;;-2.10;99.90;;;;;;4960521;28;20500;-74
2023/12/04 00:11:09;;;;;;;81.97;33.53;;;-2.20;99.90;;;;;;4955705;28;20042;-73
2023/12/04 00:13:37;;;;;;;59.92;25.52;;;-2.10;99.90;;;;;;4964360;28;20027;-73
2023/12/04 00:16:05;;;;;;;71.28;28.98;;;-2.10;99.90;;;;;;4957358;28;20132;-73
2023/12/04 00:18:32;;;;;;;75.10;30.60;;;-2.20;99.90;;;;;;4958582;28;20054;-74
2023/12/04 00:20:59;;;;;;;76.25;29.73;;;-2.20;99.90;;;;;;4960519;28;20062;-73
2023/12/04 00:23:26;;;;;;;83.70;31.27;;;-2.20;99.90;;;;;;4961775;28;20154;-74
2023/12/04 00:25:55;;;;;;;78.03;29.48;;;-2.20;99.90;;;;;;4959742;28;20042;-73
2023/12/04 00:28:22;;;;;;;62.45;27.33;;;-2.10;99.90;;;;;;4958062;28;20641;-74
2023/12/04 00:30:49;;;;;;;92.28;35.17;;;-2.10;99.90;;;;;;4961989;28;20042;-74
2023/12/04 00:33:16;;;;;;;59.28;25.08;;;-2.10;99.90;;;;;;4960389;28;20053;-74
2023/12/04 00:35:42;;;;;;;78.00;28.50;;;-2.10;99.90;;;;;;4977829;28;20053;-74
2023/12/04 00:38:09;;;;;;;61.95;26.50;;;-2.20;99.90;;;;;;4963084;28;20050;-74
2023/12/04 00:40:36;;;;;;;52.72;26.02;;;-2.20;99.90;;;;;;4960704;28;20520;-73
2023/12/04 00:43:03;;;;;;;72.25;31.27;;;-2.20;99.90;;;;;;4975796;28;20065;-73
2023/12/04 00:45:30;;;;;;;82.32;31.90;;;-2.20;99.90;;;;;;4957943;28;20112;-75
2023/12/04 00:47:57;;;;;;;74.07;33.40;;;-2.20;99.90;;;;;;4961305;28;20057;-73
2023/12/04 00:50:24;;;;;;;84.07;33.60;;;-2.20;99.90;;;;;;4966259;28;20063;-74
2023/12/04 00:52:50;;;;;;;82.50;30.58;;;-2.20;99.90;;;;;;4945800;28;20042;-75
2023/12/04 00:55:18;;;;;;;73.53;32.95;;;-2.20;99.90;;;;;;4959668;28;20050;-73
2023/12/04 00:57:45;;;;;;;76.70;31.45;;;-2.20;99.90;;;;;;4945609;28;20046;-74
2023/12/04 01:00:13;;;;;;;68.90;30.95;;;-2.20;99.90;;;;;;4945492;28;20046;-74
2023/12/04 01:02:40;;;;;;;66.50;27.52;;;-2.20;99.90;;;;;;4946322;28;20516;-73
2023/12/04 01:05:07;;;;;;;72.18;26.98;;;-2.20;99.90;;;;;;4959596;28;20108;-74
2023/12/04 01:07:34;;;;;;;71.20;29.75;;;-2.20;99.90;;;;;;4975012;28;20501;-73
2023/12/04 01:10:01;;;;;;;80.88;32.58;;;-2.20;99.90;;;;;;4958678;28;20053;-73
2023/12/04 01:12:28;;;;;;;86.45;34.63;;;-2.20;99.90;;;;;;4946130;28;20679;-74
2023/12/04 01:14:55;;;;;;;67.70;26.15;;;-2.20;99.90;;;;;;4954855;28;20109;-74
2023/12/04 01:17:21;;;;;;;73.05;27.40;;;-2.20;99.90;;;;;;4957175;28;20038;-74
2023/12/04 01:19:49;;;;;;;69.10;28.42;;;-2.20;99.90;;;;;;4958385;28;20489;-74
2023/12/04 01:22:16;;;;;;;76.32;31.20;;;-2.20;99.90;;;;;;4956197;28;20129;-74
2023/12/04 01:24:42;;;;;;;58.95;26.77;;;-2.10;99.90;;;;;;4957977;28;20055;-74
2023/12/04 01:27:10;;;;;;;73.50;30.38;;;-2.10;99.90;;;;;;4954221;28;20125;-74
2023/12/04 01:29:37;;;;;;;60.03;26.83;;;-2.10;99.90;;;;;;4941097;28;20051;-73
2023/12/04 01:32:04;;;;;;;70.80;29.30;;;-2.10;99.90;;;;;;4955884;28;20077;-73
2023/12/04 01:34:31;;;;;;;63.85;28.17;;;-2.10;99.90;;;;;;4949953;28;20046;-74
2023/12/04 01:36:58;;;;;;;67.28;27.63;;;-2.10;99.90;;;;;;4972852;28;20440;-74
2023/12/04 01:39:25;;;;;;;73.80;31.52;;;-2.10;99.90;;;;;;4955120;28;20173;-74
2023/12/04 01:41:51;;;;;;;68.45;29.25;;;-2.10;99.90;;;;;;4958600;28;20038;-74
2023/12/04 01:44:19;;;;;;;64.88;29.63;;;-2.10;99.90;;;;;;4950457;28;20382;-75
2023/12/04 01:46:46;;;;;;;59.55;22.50;;;-2.10;99.90;;;;;;4959560;28;20054;-74
2023/12/04 01:49:13;;;;;;;63.72;28.02;;;-2.10;99.90;;;;;;4972884;28;20038;-74
2023/12/04 01:51:40;;;;;;;50.55;21.50;;;-2.10;99.90;;;;;;4953273;28;20524;-75
2023/12/04 01:54:07;;;;;;;63.67;26.17;;;-2.10;99.90;;;;;;4952808;28;20035;-75
2023/12/04 01:56:37;;;;;;;69.93;29.45;;;-2.00;99.90;;;;;;4950912;28;20125;-74
2023/12/04 01:59:04;;;;;;;65.07;28.90;;;-2.00;99.90;;;;;;4956038;28;20042;-75
2023/12/04 02:01:31;;;;;;;72.72;30.10;;;-2.00;99.90;;;;;;4951657;28;20089;-75
2023/12/04 02:04:01;;;;;;;58.63;26.30;;;-2.00;99.90;;;;;;4973959;28;20050;-74
2023/12/04 02:06:28;;;;;;;65.25;27.30;;;-2.00;99.90;;;;;;4954102;28;20066;-75
2023/12/04 02:08:57;;;;;;;46.65;20.48;;;-2.00;99.90;;;;;;4960039;28;20046;-74
2023/12/04 02:11:24;;;;;;;68.72;28.70;;;-1.90;99.90;;;;;;4948025;28;20116;-75
2023/12/04 02:13:51;;;;;;;58.90;25.60;;;-1.90;99.90;;;;;;4975084;28;20041;-73
2023/12/04 02:16:19;;;;;;;56.25;26.77;;;-1.90;99.90;;;;;;4953499;28;21086;-74
2023/12/04 02:18:46;;;;;;;57.53;29.10;;;-1.90;99.90;;;;;;4963437;28;20046;-74
2023/12/04 02:21:13;;;;;;;59.95;25.77;;;-1.90;99.90;;;;;;4931488;28;20046;-75
2023/12/04 02:23:40;;;;;;;55.00;24.10;;;-1.90;99.90;;;;;;4951731;28;20143;-75
2023/12/04 02:26:16;;;;;;;52.30;26.05;;;-1.90;99.90;;;;;;4954626;28;20050;-75
2023/12/04 02:28:50;;;;;;;62.65;28.80;;;-1.90;99.90;;;;;;4953773;28;20047;-74
2023/12/04 02:31:18;;;;;;;50.38;23.63;;;-1.90;99.90;;;;;;4952782;28;20050;-76
2023/12/04 02:33:48;;;;;;;54.92;27.55;;;-1.80;99.90;;;;;;4952783;28;20038;-74
2023/12/04 02:36:16;;;;;;;54.10;26.02;;;-1.80;99.90;;;;;;4953032;28;20082;-74
2023/12/04 02:38:43;;;;;;;58.95;28.55;;;-1.80;99.90;;;;;;4959083;28;20125;-75
2023/12/04 02:41:10;;;;;;;45.03;22.80;;;-1.80;99.90;;;;;;4944864;28;20034;-75
2023/12/04 02:43:37;;;;;;;46.75;26.50;;;-1.70;99.90;;;;;;4943531;28;20045;-75
2023/12/04 02:46:04;;;;;;;45.92;24.77;;;-1.70;99.90;;;;;;4956439;28;20046;-74
2023/12/04 02:48:31;;;;;;;36.03;22.80;;;-1.70;99.90;;;;;;4952498;28;20460;-75
2023/12/04 02:50:58;;;;;;;41.50;21.85;;;-1.70;99.90;;;;;;4963564;28;20512;-75
2023/12/04 02:53:25;;;;;;;47.10;25.63;;;-1.60;99.90;;;;;;4954394;28;20054;-75
2023/12/04 02:55:51;;;;;;;45.17;25.88;;;-1.60;99.90;;;;;;4955352;28;20045;-74
2023/12/04 02:58:18;;;;;;;53.08;26.88;;;-1.50;99.90;;;;;;4957551;28;20052;-73
2023/12/04 03:00:45;;;;;;;37.50;23.50;;;-1.50;99.90;;;;;;4962163;28;20154;-74
2023/12/04 03:03:12;;;;;;;43.00;24.00;;;-1.50;99.90;;;;;;4955842;28;20042;-74
2023/12/04 03:05:39;;;;;;;48.42;25.58;;;-1.50;99.90;;;;;;4956233;28;20058;-75
2023/12/04 03:08:06;;;;;;;46.03;27.10;;;-1.50;99.90;;;;;;4954926;28;20764;-74
2023/12/04 03:10:33;;;;;;;44.90;26.05;;;-1.50;99.90;;;;;;4959442;28;20042;-73
2023/12/04 03:13:00;;;;;;;51.92;29.67;;;-1.50;99.90;;;;;;4978591;28;20026;-74
2023/12/04 03:15:28;;;;;;;51.10;28.23;;;-1.50;99.90;;;;;;5001873;28;20519;-74
2023/12/04 03:18:00;;;;;;;47.50;27.95;;;-1.50;99.90;;;;;;4978350;28;20069;-74
2023/12/04 03:20:29;;;;;;;48.22;29.50;;;-1.50;99.90;;;;;;4961730;28;20054;-76
2023/12/04 03:22:56;;;;;;;49.38;27.48;;;-1.50;99.90;;;;;;4961378;28;20050;-75
2023/12/04 03:25:23;;;;;;;47.40;28.70;;;-1.50;99.90;;;;;;4952731;28;20050;-75
2023/12/04 03:27:49;;;;;;;34.25;24.08;;;-1.50;99.90;;;;;;4958891;28;20050;-74
2023/12/04 03:30:16;;;;;;;47.05;27.83;;;-1.50;99.90;;;;;;4957628;28;20058;-74
2023/12/04 03:32:43;;;;;;;42.72;27.35;;;-1.60;99.90;;;;;;4956324;28;20050;-75
2023/12/04 03:35:10;;;;;;;41.20;25.77;;;-1.60;99.90;;;;;;4958183;28;20046;-75
2023/12/04 03:37:37;;;;;;;43.17;29.40;;;-1.60;99.90;;;;;;4957951;28;20054;-74
2023/12/04 03:40:05;;;;;;;46.67;27.75;;;-1.50;99.90;;;;;;4944954;28;20096;-75
2023/12/04 03:42:32;;;;;;;47.53;28.95;;;-1.50;99.90;;;;;;4959383;28;20069;-74
2023/12/04 03:44:58;;;;;;;46.08;26.17;;;-1.50;99.90;;;;;;4966021;28;20124;-75
2023/12/04 03:47:25;;;;;;;44.67;28.42;;;-1.50;99.90;;;;;;4954146;28;20108;-75
2023/12/04 03:49:53;;;;;;;46.72;27.40;;;-1.50;99.90;;;;;;4941423;28;20053;-75
2023/12/04 03:52:20;;;;;;;44.50;29.33;;;-1.50;99.90;;;;;;4978549;28;20043;-75
2023/12/04 03:54:47;;;;;;;43.67;27.30;;;-1.50;99.90;;;;;;4960415;28;20135;-75
2023/12/04 03:57:14;;;;;;;41.47;26.08;;;-1.50;99.90;;;;;;4978149;28;20045;-75
2023/12/04 03:59:40;;;;;;;55.03;32.17;;;-1.50;99.90;;;;;;4975554;28;20061;-74
2023/12/04 04:02:08;;;;;;;45.33;29.70;;;-1.50;99.90;;;;;;4986294;28;20038;-73
2023/12/04 04:04:42;;;;;;;39.75;29.10;;;-1.40;99.90;;;;;;4961243;28;20070;-75
2023/12/04 04:07:09;;;;;;;42.72;30.02;;;-1.50;99.90;;;;;;4949613;28;20538;-75
2023/12/04 04:09:36;;;;;;;43.97;29.17;;;-1.50;99.90;;;;;;4956422;28;20065;-75
2023/12/04 04:12:03;;;;;;;41.78;29.10;;;-1.40;99.90;;;;;;4969518;28;20049;-75
2023/12/04 04:14:30;;;;;;;45.58;31.38;;;-1.30;99.90;;;;;;4944634;28;20050;-74
2023/12/04 04:16:56;;;;;;;48.50;32.50;;;-1.30;99.90;;;;;;4948253;28;20047;-74
2023/12/04 04:19:23;;;;;;;47.15;32.05;;;-1.30;99.90;;;;;;4957146;28;20096;-75
2023/12/04 04:21:51;;;;;;;43.78;30.40;;;-1.20;99.90;;;;;;4980820;28;20038;-74
2023/12/04 04:24:17;;;;;;;45.83;32.30;;;-1.30;99.90;;;;;;4946305;28;20064;-75
2023/12/04 04:26:45;;;;;;;45.95;31.17;;;-1.30;99.90;;;;;;4941574;28;20039;-75
2023/12/04 04:29:12;;;;;;;43.22;28.75;;;-1.30;99.90;;;;;;4943154;28;20058;-75
2023/12/04 04:31:39;;;;;;;43.65;31.30;;;-1.40;99.90;;;;;;4962594;28;20046;-74
2023/12/04 04:34:06;;;;;;;50.00;35.25;;;-1.40;99.90;;;;;;4950728;28;20074;-74
2023/12/04 04:36:35;;;;;;;44.85;32.05;;;-1.40;99.90;;;;;;4955231;28;20046;-75
2023/12/04 04:39:03;;;;;;;47.78;33.30;;;-1.40;99.90;;;;;;4983177;28;20045;-74
2023/12/04 04:41:34;;;;;;;37.47;28.60;;;-1.30;99.90;;;;;;4960817;28;20976;-73
2023/12/04 04:44:01;;;;;;;45.65;33.35;;;-1.40;99.90;;;;;;4980172;28;20104;-74
2023/12/04 04:46:44;;;;;;;41.72;29.50;;;-1.40;99.90;;;;;;4956175;28;20039;-74
2023/12/04 04:49:11;;;;;;;44.72;33.00;;;-1.40;99.90;;;;;;4978853;28;20039;-73
2023/12/04 04:51:38;;;;;;;46.33;31.17;;;-1.40;99.90;;;;;;4963550;28;20039;-74
2023/12/04 04:54:05;;;;;;;45.65;32.28;;;-1.40;99.90;;;;;;4964605;28;20050;-74
2023/12/04 04:56:32;;;;;;;45.63;32.80;;;-1.40;99.90;;;;;;4961743;28;20496;-73
2023/12/04 04:58:59;;;;;;;45.97;30.48;;;-1.30;99.90;;;;;;4968676;28;20053;-74
2023/12/04 05:01:29;;;;;;;42.20;31.45;;;-1.40;99.90;;;;;;4981912;28;20056;-73
2023/12/04 05:03:57;;;;;;;45.53;33.42;;;-1.40;99.90;;;;;;4947233;28;20071;-74
2023/12/04 05:06:24;;;;;;;38.83;30.90;;;-1.40;99.90;;;;;;4962002;28;20038;-74
2023/12/04 05:08:52;;;;;;;45.55;30.33;;;-1.40;99.90;;;;;;4960488;28;20126;-75
2023/12/04 05:11:46;;;;;;;43.47;31.55;;;-1.40;99.90;;;;;;4965177;28;20145;-75
2023/12/04 05:14:13;;;;;;;39.58;30.83;;;-1.40;99.90;;;;;;4958912;28;20047;-74
2023/12/04 05:16:40;;;;;;;46.20;34.42;;;-1.40;99.90;;;;;;4962103;28;20489;-75
2023/12/04 05:19:07;;;;;;;34.05;26.50;;;-1.40;99.90;;;;;;4966886;28;20602;-74
2023/12/04 05:21:35;;;;;;;39.45;29.35;;;-1.40;99.90;;;;;;4962144;28;20725;-75
2023/12/04 05:24:02;;;;;;;37.50;30.15;;;-1.40;99.90;;;;;;4951679;28;20038;-74
2023/12/04 05:26:29;;;;;;;47.38;32.65;;;-1.40;99.90;;;;;;4946704;28;20039;-75
2023/12/04 05:28:56;;;;;;;34.45;28.60;;;-1.50;99.90;;;;;;4966875;28;20046;-75
2023/12/04 05:31:22;;;;;;;44.10;32.70;;;-1.50;99.90;;;;;;4965612;28;20361;-76
2023/12/04 05:33:49;;;;;;;39.92;30.20;;;-1.50;99.90;;;;;;4985463;28;20488;-75
2023/12/04 05:36:17;;;;;;;31.77;27.02;;;-1.50;99.90;;;;;;4951899;28;20050;-74
2023/12/04 05:38:43;;;;;;;33.58;29.42;;;-1.50;99.90;;;;;;4966159;28;20078;-75
2023/12/04 05:41:10;;;;;;;41.90;30.70;;;-1.60;99.90;;;;;;4958300;28;20050;-77
2023/12/04 05:43:37;;;;;;;41.08;30.40;;;-1.50;99.90;;;;;;4946344;28;20054;-76
2023/12/04 05:46:04;;;;;;;40.97;32.67;;;-1.50;99.90;;;;;;4959571;28;20587;-75
2023/12/04 05:48:31;;;;;;;43.20;33.20;;;-1.50;99.90;;;;;;4945804;28;20061;-76
2023/12/04 05:50:57;;;;;;;43.88;32.35;;;-1.50;99.90;;;;;;4979988;28;20047;-75
2023/12/04 05:53:51;;;;;;;36.30;28.73;;;-1.50;99.90;;;;;;4963763;28;20072;-75
2023/12/04 05:56:17;;;;;;;40.03;32.10;;;-1.50;99.90;;;;;;4956276;28;20077;-75
2023/12/04 05:58:44;;;;;;;42.83;30.08;;;-1.50;99.90;;;;;;4967450;28;20050;-75
2023/12/04 06:01:11;;;;;;;39.35;32.15;;;-1.50;99.90;;;;;;4949755;28;20098;-75
2023/12/04 06:03:38;;;;;;;40.22;32.83;;;-1.50;99.90;;;;;;4944214;28;20054;-75
2023/12/04 06:06:05;;;;;;;33.63;26.80;;;-1.50;99.90;;;;;;4968688;28;20045;-75
2023/12/04 06:08:32;;;;;;;40.88;32.05;;;-1.50;99.90;;;;;;4981303;28;20058;-75
2023/12/04 06:10:58;;;;;;;35.17;31.25;;;-1.50;99.90;;;;;;4968934;28;20062;-74
2023/12/04 06:13:25;;;;;;;42.42;32.30;;;-1.50;99.90;;;;;;4980492;28;20045;-76
2023/12/04 06:15:52;;;;;;;36.65;29.75;;;-1.50;99.90;;;;;;4962249;28;20480;-75
2023/12/04 06:18:20;;;;;;;35.40;29.48;;;-1.40;99.90;;;;;;4977218;28;20053;-75
2023/12/04 06:20:47;;;;;;;36.28;29.33;;;-1.50;99.90;;;;;;4978285;28;20050;-75
2023/12/04 06:23:15;;;;;;;38.90;30.88;;;-1.50;99.90;;;;;;4965194;28;20046;-75
2023/12/04 06:25:41;;;;;;;38.35;30.63;;;-1.50;99.90;;;;;;4964746;28;20374;-75
2023/12/04 06:28:09;;;;;;;43.15;33.20;;;-1.40;99.90;;;;;;4958258;28;20136;-75
2023/12/04 06:30:36;;;;;;;35.00;30.02;;;-1.40;99.90;;;;;;4959952;28;20046;-75
2023/12/04 06:33:04;;;;;;;42.15;31.00;;;-1.40;99.90;;;;;;4964802;28;20096;-74
2023/12/04 06:35:31;;;;;;;32.67;27.92;;;-1.50;99.90;;;;;;4958055;28;20050;-73
2023/12/04 06:38:01;;;;;;;46.22;33.88;;;-1.50;99.90;;;;;;4960634;28;20634;-75
2023/12/04 06:40:28;;;;;;;40.65;32.15;;;-1.50;99.90;;;;;;4959712;28;20862;-74
2023/12/04 06:42:59;;;;;;;41.38;33.42;;;-1.60;99.90;;;;;;4959614;28;20058;-74
2023/12/04 06:45:27;;;;;;;44.72;31.75;;;-1.50;99.90;;;;;;4940044;28;20125;-74
2023/12/04 06:47:54;;;;;;;31.85;28.45;;;-1.60;99.90;;;;;;4947470;28;20046;-72
2023/12/04 06:50:21;;;;;;;42.88;33.38;;;-1.60;99.90;;;;;;4946258;28;20073;-74
2023/12/04 06:52:48;;;;;;;41.58;33.33;;;-1.60;99.90;;;;;;4960243;28;20054;-73
2023/12/04 06:55:21;;;;;;;41.90;33.58;;;-1.60;99.90;;;;;;4979874;28;20061;-74
2023/12/04 06:57:47;;;;;;;39.75;31.05;;;-1.70;99.90;;;;;;4972061;28;20046;-72
2023/12/04 07:00:16;;;;;;;32.80;28.15;;;-1.70;99.90;;;;;;4984517;28;20074;-74
2023/12/04 07:02:49;;;;;;;39.25;32.70;;;-1.70;99.90;;;;;;4967289;28;20057;-73
2023/12/04 07:05:18;;;;;;;40.15;29.42;;;-1.70;99.90;;;;;;4946506;28;20074;-73
2023/12/04 07:07:45;;;;;;;31.70;27.02;;;-1.70;99.90;;;;;;4982108;28;20035;-74
2023/12/04 07:10:14;;;;;;;37.50;30.42;;;-1.70;99.90;;;;;;4957175;28;20052;-74
2023/12/04 07:12:42;;;;;;;38.38;30.92;;;-1.70;99.90;;;;;;4953869;28;20054;-74
2023/12/04 07:15:11;;;;;;;34.25;28.63;;;-1.70;99.90;;;;;;4963299;28;20046;-72
2023/12/04 07:17:40;;;;;;;33.45;28.45;;;-1.70;99.90;;;;;;4951554;28;20640;-71
2023/12/04 07:20:08;;;;;;;37.70;29.58;;;-1.80;99.90;;;;;;4963077;28;20057;-69
2023/12/04 07:22:35;;;;;;;39.80;30.63;;;-1.80;99.90;;;;;;4970792;28;20034;-69
2023/12/04 07:25:07;;;;;;;35.45;28.45;;;-1.80;99.90;;;;;;4960357;28;20042;-71
2023/12/04 07:27:34;;;;;;;36.55;30.63;;;-1.80;99.90;;;;;;4958701;28;20682;-69
2023/12/04 07:30:02;;;;;;;32.50;28.45;;;-1.80;99.90;;;;;;4957626;28;20443;-70
2023/12/04 07:32:29;;;;;;;35.45;29.70;;;-1.80;99.90;;;;;;4960956;28;20046;-70
2023/12/04 07:34:56;;;;;;;35.80;30.42;;;-1.80;99.90;;;;;;4959301;28;20054;-70
2023/12/04 07:37:23;;;;;;;40.35;33.95;;;-1.70;99.90;;;;;;4967249;28;20085;-68
2023/12/04 07:39:50;;;;;;;32.28;27.80;;;-1.60;99.90;;;;;;4964998;28;20138;-69
2023/12/04 07:42:16;;;;;;;35.58;29.67;;;-1.70;99.90;;;;;;4976655;28;20046;-69
2023/12/04 07:44:43;;;;;;;31.95;28.48;;;-1.70;99.90;;;;;;4967388;28;20619;-70
2023/12/04 07:47:10;;;;;;;38.67;30.48;;;-1.70;99.90;;;;;;4954620;28;20034;-67
2023/12/04 07:49:36;;;;;;;33.05;29.52;;;-1.60;99.90;;;;;;4954532;28;20453;-69
2023/12/04 07:52:04;;;;;;;43.78;31.17;;;-1.60;99.90;;;;;;4957155;28;20657;-70
2023/12/04 07:54:31;;;;;;;43.42;32.58;;;-1.60;99.90;;;;;;4961384;28;20046;-71
2023/12/04 07:56:58;;;;;;;33.83;28.58;;;-1.60;99.90;;;;;;4958246;28;20169;-70
2023/12/04 07:59:25;;;;;;;37.38;30.70;;;-1.60;99.90;;;;;;4952914;28;20113;-70
2023/12/04 08:01:51;;;;;;;59.85;44.13;;;-1.50;99.90;;;;;;4954351;28;20069;-70
2023/12/04 08:04:18;;;;;;;44.22;32.47;;;-1.50;99.90;;;;;;4974660;28;20061;-70
2023/12/04 08:06:45;;;;;;;52.65;38.42;;;-1.50;99.90;;;;;;4953124;28;20599;-72
2023/12/04 08:09:12;;;;;;;42.22;35.42;;;-1.50;99.90;;;;;;4954643;28;20046;-70
2023/12/04 08:11:39;;;;;;;52.42;40.85;;;-1.50;99.90;;;;;;4951489;28;20101;-69
2023/12/04 08:14:06;;;;;;;31.92;28.17;;;-1.60;99.90;;;;;;4973213;28;20046;-70
2023/12/04 08:16:33;;;;;;;36.47;28.98;;;-1.60;99.90;;;;;;4947355;28;20062;-70
2023/12/04 08:19:00;;;;;;;47.38;34.15;;;-1.60;99.90;;;;;;4935294;28;20456;-71
2023/12/04 08:21:27;;;;;;;49.17;37.28;;;-1.50;99.90;;;;;;4969580;28;20042;-70
2023/12/04 08:23:53;;;;;;;46.55;38.70;;;-1.50;99.90;;;;;;4955152;28;20042;-70
2023/12/04 08:26:24;;;;;;;42.03;33.97;;;-1.50;99.90;;;;;;4958173;28;20642;-70
2023/12/04 08:28:52;;;;;;;39.17;34.40;;;-1.50;99.90;;;;;;4970225;28;20101;-70
2023/12/04 08:31:19;;;;;;;38.63;34.72;;;-1.50;99.90;;;;;;4960265;28;20053;-69
2023/12/04 08:33:46;;;;;;;38.80;33.88;;;-1.40;99.90;;;;;;4976135;28;21017;-70
2023/12/04 08:36:13;;;;;;;36.55;32.45;;;-1.50;99.90;;;;;;4949050;28;20858;-72
2023/12/04 08:38:40;;;;;;;38.13;34.25;;;-1.50;99.90;;;;;;4958100;28;20042;-70
2023/12/04 08:41:07;;;;;;;63.42;46.97;;;-1.50;99.90;;;;;;4963222;28;20362;-70
2023/12/04 08:43:34;;;;;;;39.47;33.33;;;-1.60;99.90;;;;;;4978348;28;20065;-70
2023/12/04 08:46:00;;;;;;;38.42;34.63;;;-1.60;99.90;;;;;;4955156;28;20650;-70
2023/12/04 08:48:27;;;;;;;39.85;35.55;;;-1.60;99.90;;;;;;4957920;28;20055;-70
2023/12/04 08:50:55;;;;;;;37.65;33.55;;;-1.50;99.90;;;;;;4958285;28;20521;-71
2023/12/04 08:53:21;;;;;;;49.15;42.47;;;-1.40;99.90;;;;;;4980758;28;20112;-71
2023/12/04 08:55:48;;;;;;;42.88;34.72;;;-1.40;99.90;;;;;;4959002;28;20512;-70
2023/12/04 08:58:15;;;;;;;229.88;119.72;;;-1.40;99.90;;;;;;4977803;28;20045;-70
2023/12/04 09:00:42;;;;;;;52.55;41.13;;;-1.40;99.90;;;;;;4956877;28;20034;-70
2023/12/04 09:03:10;;;;;;;37.08;33.30;;;-1.40;99.90;;;;;;4960397;28;20546;-71
2023/12/04 09:05:50;;;;;;;75.28;50.53;;;-1.40;99.90;;;;;;4969355;28;21314;-70
2023/12/04 09:08:21;;;;;;;43.88;36.70;;;-1.40;99.90;;;;;;4945586;28;20183;-69
2023/12/04 09:11:05;;;;;;;42.80;39.22;;;-1.40;99.90;;;;;;4959627;28;20043;-71
2023/12/04 09:13:35;;;;;;;36.72;33.13;;;-1.50;99.90;;;;;;4961402;28;20643;-70
2023/12/04 09:16:02;;;;;;;36.38;32.38;;;-1.50;99.90;;;;;;4974683;28;20046;-70
2023/12/04 09:18:29;;;;;;;35.90;32.40;;;-1.50;99.90;;;;;;4953705;28;20046;-70
2023/12/04 09:20:56;;;;;;;37.95;33.83;;;-1.50;99.90;;;;;;4956291;28;20046;-70
2023/12/04 09:23:22;;;;;;;38.65;34.47;;;-1.50;99.90;;;;;;4942526;28;20721;-71
2023/12/04 09:25:52;;;;;;;42.03;37.42;;;-1.50;99.90;;;;;;4953276;28;20590;-71
2023/12/04 09:28:19;;;;;;;34.88;31.45;;;-1.40;99.90;;;;;;4954280;28;20058;-70
2023/12/04 09:30:45;;;;;;;36.13;32.40;;;-1.40;99.90;;;;;;4969889;28;20062;-70
2023/12/04 09:33:12;;;;;;;43.10;38.47;;;-1.40;99.90;;;;;;4954555;28;20539;-70
2023/12/04 09:35:39;;;;;;;43.05;36.33;;;-1.20;99.90;;;;;;4956304;28;20298;-71
2023/12/04 09:38:06;;;;;;;38.00;34.13;;;-1.20;99.90;;;;;;4975047;28;20993;-72
2023/12/04 09:40:33;;;;;;;37.78;34.08;;;-1.20;99.90;;;;;;4971157;28;20062;-71
2023/12/04 09:43:01;;;;;;;56.85;51.13;;;-1.10;99.90;;;;;;4957543;28;20038;-72
2023/12/04 09:45:31;;;;;;;39.85;35.65;;;-1.10;99.90;;;;;;4952898;28;20125;-70
2023/12/04 09:47:59;;;;;;;37.38;33.45;;;-1.00;99.90;;;;;;4949742;28;20054;-69
2023/12/04 09:50:26;;;;;;;36.13;32.60;;;-1.00;99.90;;;;;;4969446;28;20050;-70
2023/12/04 09:52:53;;;;;;;37.10;33.38;;;-1.00;99.90;;;;;;4948399;28;20073;-70
2023/12/04 09:55:20;;;;;;;46.00;37.90;;;-0.90;99.90;;;;;;4953811;28;20060;-70
2023/12/04 09:57:48;;;;;;;37.08;33.53;;;-0.90;99.90;;;;;;4945466;28;20653;-70
2023/12/04 10:00:16;;;;;;;39.92;35.08;;;-0.90;99.90;;;;;;4948222;28;20125;-73
2023/12/04 10:02:43;;;;;;;42.72;38.13;;;-0.90;99.90;;;;;;4959814;28;20040;-72
2023/12/04 10:05:10;;;;;;;43.60;39.33;;;-1.00;99.90;;;;;;4967302;28;20034;-72
2023/12/04 10:07:37;;;;;;;34.85;31.30;;;-0.90;99.90;;;;;;4966650;28;20757;-71
2023/12/04 10:10:08;;;;;;;42.10;37.80;;;-0.90;99.90;;;;;;4965543;28;20289;-70
2023/12/04 10:12:36;;;;;;;37.05;33.13;;;-0.80;99.90;;;;;;4965219;28;20054;-71
2023/12/04 10:15:10;;;;;;;47.70;42.95;;;-0.80;99.90;;;;;;4947944;28;20053;-71
2023/12/04 10:17:39;;;;;;;42.55;38.10;;;-0.80;99.90;;;;;;4930285;28;20050;-71
2023/12/04 10:20:11;;;;;;;39.83;35.58;;;-0.90;99.90;;;;;;4948576;28;20034;-70
2023/12/04 10:22:39;;;;;;;37.72;34.03;;;-0.80;99.90;;;;;;4963757;28;20151;-70
2023/12/04 10:25:16;;;;;;;37.17;33.33;;;-0.80;99.90;;;;;;4968988;28;20494;-71
2023/12/04 10:27:43;;;;;;;39.00;34.88;;;-0.80;99.90;;;;;;4931046;28;20043;-69
2023/12/04 10:30:22;;;;;;;39.03;35.00;;;-0.80;99.90;;;;;;4968261;28;20030;-71
2023/12/04 10:32:48;;;;;;;36.08;32.42;;;-0.70;99.90;;;;;;4952486;28;20053;-69
2023/12/04 10:35:16;;;;;;;36.63;32.90;;;-0.60;99.90;;;;;;4962239;28;20136;-70
2023/12/04 10:37:43;;;;;;;33.38;30.67;;;-0.60;99.90;;;;;;4973283;28;20022;-69
2023/12/04 10:40:10;;;;;;;33.05;29.88;;;-0.70;99.90;;;;;;4978934;28;20089;-69
2023/12/04 10:42:37;;;;;;;33.38;29.70;;;-0.70;99.90;;;;;;4991626;28;20039;-70
2023/12/04 10:45:06;;;;;;;35.08;31.73;;;-0.70;99.90;;;;;;4944089;28;20068;-71
2023/12/04 10:47:35;;;;;;;37.30;33.83;;;-0.70;99.90;;;;;;4963727;28;20054;-69
2023/12/04 10:50:02;;;;;;;34.78;31.42;;;-0.70;99.90;;;;;;4967807;28;20086;-70
2023/12/04 10:52:31;;;;;;;43.95;39.45;;;-0.60;99.90;;;;;;4951017;28;20143;-73
2023/12/04 10:54:59;;;;;;;48.80;44.08;;;-0.60;99.90;;;;;;4956531;28;21474;-72
2023/12/04 10:57:36;;;;;;;67.32;60.80;;;-0.60;99.90;;;;;;4946351;28;20046;-72
2023/12/04 11:00:05;;;;;;;39.00;35.30;;;-0.50;99.90;;;;;;4945131;28;20075;-71
2023/12/04 11:02:34;;;;;;;41.80;37.80;;;-0.60;99.90;;;;;;4949760;28;20453;-71
2023/12/04 11:05:16;;;;;;;36.33;32.60;;;-0.60;99.90;;;;;;4947269;28;20382;-72
2023/12/04 11:07:49;;;;;;;36.58;33.08;;;-0.60;99.90;;;;;;4946876;28;20507;-73
2023/12/04 11:10:46;;;;;;;48.97;44.20;;;-0.60;99.90;;;;;;4936774;28;20057;-75
2023/12/04 11:13:34;;;;;;;36.60;33.17;;;-0.60;99.90;;;;;;4951141;28;20167;-72
2023/12/04 11:16:07;;;;;;;46.42;42.08;;;-0.50;99.90;;;;;;4945619;28;20057;-72
2023/12/04 11:18:39;;;;;;;39.15;34.90;;;-0.50;99.90;;;;;;4932441;28;20133;-72
2023/12/04 11:21:08;;;;;;;35.22;32.17;;;-0.50;99.90;;;;;;4953787;28;20046;-74
2023/12/04 11:23:36;;;;;;;37.03;33.58;;;-0.50;99.90;;;;;;4948585;28;20125;-71
2023/12/04 11:26:05;;;;;;;37.65;34.03;;;-0.50;99.90;;;;;;4968881;28;20147;-72
2023/12/04 11:28:33;;;;;;;32.95;30.15;;;-0.50;99.90;;;;;;4950400;28;20042;-71
2023/12/04 11:31:04;;;;;;;36.55;33.15;;;-0.50;99.90;;;;;;4949587;28;20157;-73
2023/12/04 11:33:38;;;;;;;35.80;32.30;;;-0.40;99.90;;;;;;4946289;28;20057;-72
2023/12/04 11:36:12;;;;;;;41.72;37.30;;;-0.40;99.90;;;;;;4967383;28;20546;-70
2023/12/04 11:38:48;;;;;;;37.08;33.28;;;-0.40;99.90;;;;;;4947291;28;20046;-72
2023/12/04 11:41:23;;;;;;;34.78;31.48;;;-0.50;99.90;;;;;;4953533;28;20089;-76
2023/12/04 11:43:55;;;;;;;38.15;34.45;;;-0.50;99.90;;;;;;4963835;28;20061;-72
2023/12/04 11:46:27;;;;;;;34.45;31.15;;;-0.50;99.90;;;;;;4947889;28;20100;-73
2023/12/04 11:49:15;;;;;;;35.30;32.00;;;-0.50;99.90;;;;;;4958468;28;20058;-73
2023/12/04 11:51:43;;;;;;;32.70;29.70;;;-0.40;99.90;;;;;;4918118;28;20098;-72
2023/12/04 11:54:13;;;;;;;35.20;32.25;;;-0.40;99.90;;;;;;4949620;28;20137;-71
2023/12/04 11:56:40;;;;;;;35.38;32.08;;;-0.40;99.90;;;;;;4951457;28;20046;-72
2023/12/04 11:59:08;;;;;;;34.28;31.13;;;-0.40;99.90;;;;;;4951057;28;20038;-71
2023/12/04 12:01:39;;;;;;;44.70;40.92;;;-0.40;99.90;;;;;;4948932;28;20425;-73
2023/12/04 12:04:06;;;;;;;35.55;31.85;;;-0.30;99.90;;;;;;4947349;28;20050;-72
2023/12/04 12:06:34;;;;;;;35.17;31.77;;;-0.30;99.90;;;;;;4952187;28;20044;-71
2023/12/04 12:09:01;;;;;;;37.28;32.88;;;-0.30;99.90;;;;;;4945098;28;20097;-73
2023/12/04 12:11:28;;;;;;;35.10;31.42;;;-0.30;99.90;;;;;;4946220;28;20057;-71
2023/12/04 12:13:55;;;;;;;36.17;32.58;;;-0.30;99.90;;;;;;4945534;28;20043;-70
2023/12/04 12:16:22;;;;;;;34.17;30.58;;;-0.30;99.90;;;;;;4948637;28;20067;-71
2023/12/04 12:18:49;;;;;;;33.05;29.73;;;-0.40;99.90;;;;;;4949114;28;20046;-71
2023/12/04 12:21:16;;;;;;;37.47;33.90;;;-0.40;99.90;;;;;;4948156;28;20072;-72
2023/12/04 12:23:43;;;;;;;35.15;31.77;;;-0.40;99.90;;;;;;4947343;28;20137;-71
2023/12/04 12:26:11;;;;;;;40.50;35.70;;;-0.40;99.90;;;;;;4950218;28;20546;-72
2023/12/04 12:28:38;;;;;;;35.10;31.35;;;-0.30;99.90;;;;;;4943300;28;20065;-70
2023/12/04 12:31:05;;;;;;;35.83;32.33;;;-0.30;99.90;;;;;;4951598;28;20575;-71